sensor_id;sensor_type;location;lat;lon;timestamp;pressure;altitude;pressure_sealevel;temperature;humidity
27429;BME280;14881;48.092;11.574;2024-01-15T00:01:49;94176.25;;;-0.47;100.00
27429;BME280;14881;48.092;11.574;2024-01-15T00:04:17;94161.97;;;-0.36;100.00
27429;BME280;14881;48.092;11.574;2024-01-15T00:06:43;94162.19;;;-0.42;100.00
27429;BME280;14881;48.092;11.574;2024-01-15T00:09:10;94151.91;;;-0.23;100.00
27429;BME280;14881;48.092;11.574;2024-01-15T00:11:36;94146.44;;;-0.07;100.00
27429;BME280;14881;48.092;11.574;2024-01-15T00:14:03;94147.56;;;0.08;100.00
27429;BME280;14881;48.092;11.574;2024-01-15T00:16:29;94147.03;;;0.06;100.00
27429;BME280;14881;48.092;11.574;2024-01-15T00:18:56;94165.97;;;0.04;100.00
27429;BME280;14881;48.092;11.574;2024-01-15T00:21:23;94158.41;;;-0.09;100.00
27429;BME280;14881;48.092;11.574;2024-01-15T00:23:49;94157.94;;;-0.01;100.00
27429;BME280;14881;48.092;11.574;2024-01-15T00:26:16;94149.38;;;-0.03;100.00
27429;BME280;14881;48.092;11.574;2024-01-15T00:28:42;94158.75;;;-0.01;100.00
27429;BME280;14881;48.092;11.574;2024-01-15T00:31:08;94157.88;;;-0.11;100.00
27429;BME280;14881;48.092;11.574;2024-01-15T00:33:35;94159.91;;;-0.23;100.00
27429;BME280;14881;48.092;11.574;2024-01-15T00:36:02;94162.59;;;-0.23;100.00
27429;BME280;14881;48.092;11.574;2024-01-15T00:38:30;94157.25;;;-0.23;100.00
27429;BME280;14881;48.092;11.574;2024-01-15T00:40:56;94157.50;;;-0.25;100.00
27429;BME280;14881;48.092;11.574;2024-01-15T00:43:22;94173.00;;;-0.22;100.00
27429;BME280;14881;48.092;11.574;2024-01-15T00:45:49;94178.25;;;-0.32;100.00
27429;BME280;14881;48.092;11.574;2024-01-15T00:48:15;94176.63;;;-0.33;100.00
27429;BME280;14881;48.092;11.574;2024-01-15T00:50:42;94185.44;;;-0.38;100.00
27429;BME280;14881;48.092;11.574;2024-01-15T00:53:08;94190.84;;;-0.27;100.00
27429;BME280;14881;48.092;11.574;2024-01-15T00:55:35;94202.50;;;-0.33;100.00
27429;BME280;14881;48.092;11.574;2024-01-15T00:58:03;94191.63;;;-0.27;100.00
27429;BME280;14881;48.092;11.574;2024-01-15T01:00:30;94200.19;;;-0.25;100.00
27429;BME280;14881;48.092;11.574;2024-01-15T01:02:56;94195.66;;;-0.24;100.00
27429;BME280;14881;48.092;11.574;2024-01-15T01:05:23;94197.78;;;-0.26;100.00
27429;BME280;14881;48.092;11.574;2024-01-15T01:07:49;94206.53;;;-0.31;100.00
27429;BME280;14881;48.092;11.574;2024-01-15T01:10:16;94199.34;;;-0.30;100.00
27429;BME280;14881;48.092;11.574;2024-01-15T01:12:43;94199.28;;;-0.41;100.00
27429;BME280;14881;48.092;11.574;2024-01-15T01:15:10;94202.44;;;-0.44;100.00
27429;BME280;14881;48.092;11.574;2024-01-15T01:17:36;94200.03;;;-0.45;100.00
27429;BME280;14881;48.092;11.574;2024-01-15T01:20:03;94203.69;;;-0.51;100.00
27429;BME280;14881;48.092;11.574;2024-01-15T01:22:32;94205.72;;;-0.63;100.00
27429;BME280;14881;48.092;11.574;2024-01-15T01:24:58;94197.63;;;-0.74;100.00
27429;BME280;14881;48.092;11.574;2024-01-15T01:27:25;94200.97;;;-0.83;100.00
27429;BME280;14881;48.092;11.574;2024-01-15T01:29:52;94204.78;;;-1.01;100.00
27429;BME280;14881;48.092;11.574;2024-01-15T01:32:19;94214.22;;;-1.15;100.00
27429;BME280;14881;48.092;11.574;2024-01-15T01:34:45;94216.78;;;-1.25;100.00
27429;BME280;14881;48.092;11.574;2024-01-15T01:37:12;94219.38;;;-1.30;100.00
27429;BME280;14881;48.092;11.574;2024-01-15T01:39:39;94221.06;;;-1.46;100.00
27429;BME280;14881;48.092;11.574;2024-01-15T01:42:06;94221.28;;;-1.48;100.00
27429;BME280;14881;48.092;11.574;2024-01-15T01:44:32;94218.00;;;-1.55;100.00
27429;BME280;14881;48.092;11.574;2024-01-15T01:47:00;94222.06;;;-1.69;100.00
27429;BME280;14881;48.092;11.574;2024-01-15T01:49:27;94227.63;;;-1.70;100.00
27429;BME280;14881;48.092;11.574;2024-01-15T01:51:55;94234.19;;;-1.78;100.00
27429;BME280;14881;48.092;11.574;2024-01-15T01:54:24;94227.66;;;-1.87;100.00
27429;BME280;14881;48.092;11.574;2024-01-15T01:56:51;94218.81;;;-1.93;100.00
27429;BME280;14881;48.092;11.574;2024-01-15T01:59:18;94223.94;;;-1.86;100.00
27429;BME280;14881;48.092;11.574;2024-01-15T02:01:46;94232.19;;;-1.88;100.00
27429;BME280;14881;48.092;11.574;2024-01-15T02:04:14;94235.28;;;-1.96;100.00
27429;BME280;14881;48.092;11.574;2024-01-15T02:06:45;94232.75;;;-2.02;100.00
27429;BME280;14881;48.092;11.574;2024-01-15T02:09:12;94232.19;;;-2.04;100.00
27429;BME280;14881;48.092;11.574;2024-01-15T02:11:40;94218.31;;;-2.06;100.00
27429;BME280;14881;48.092;11.574;2024-01-15T02:14:07;94230.59;;;-2.05;100.00
27429;BME280;14881;48.092;11.574;2024-01-15T02:16:34;94225.78;;;-2.08;100.00
27429;BME280;14881;48.092;11.574;2024-01-15T02:19:01;94230.50;;;-1.94;100.00
27429;BME280;14881;48.092;11.574;2024-01-15T02:21:28;94236.13;;;-1.90;100.00
27429;BME280;14881;48.092;11.574;2024-01-15T02:23:55;94230.66;;;-1.84;100.00
27429;BME280;14881;48.092;11.574;2024-01-15T02:26:22;94232.81;;;-1.81;100.00
27429;BME280;14881;48.092;11.574;2024-01-15T02:28:50;94230.50;;;-1.77;100.00
27429;BME280;14881;48.092;11.574;2024-01-15T02:31:17;94242.50;;;-1.74;100.00
27429;BME280;14881;48.092;11.574;2024-01-15T02:33:44;94249.44;;;-1.73;100.00
27429;BME280;14881;48.092;11.574;2024-01-15T02:36:12;94250.97;;;-1.78;100.00
27429;BME280;14881;48.092;11.574;2024-01-15T02:38:38;94262.19;;;-1.76;100.00
27429;BME280;14881;48.092;11.574;2024-01-15T02:41:06;94254.19;;;-1.76;100.00
27429;BME280;14881;48.092;11.574;2024-01-15T02:43:32;94250.97;;;-1.78;100.00
27429;BME280;14881;48.092;11.574;2024-01-15T02:45:58;94255.53;;;-1.73;100.00
27429;BME280;14881;48.092;11.574;2024-01-15T02:48:25;94260.38;;;-1.70;100.00
27429;BME280;14881;48.092;11.574;2024-01-15T02:50:52;94263.00;;;-1.75;100.00
27429;BME280;14881;48.092;11.574;2024-01-15T02:53:18;94261.63;;;-1.78;100.00
27429;BME280;14881;48.092;11.574;2024-01-15T02:55:44;94274.34;;;-1.80;100.00
27429;BME280;14881;48.092;11.574;2024-01-15T02:58:11;94284.44;;;-1.82;100.00
27429;BME280;14881;48.092;11.574;2024-01-15T03:00:38;94276.44;;;-1.82;100.00
27429;BME280;14881;48.092;11.574;2024-01-15T03:03:04;94263.16;;;-1.82;100.00
27429;BME280;14881;48.092;11.574;2024-01-15T03:05:31;94270.41;;;-1.77;100.00
27429;BME280;14881;48.092;11.574;2024-01-15T03:07:57;94269.28;;;-1.81;100.00
27429;BME280;14881;48.092;11.574;2024-01-15T03:10:24;94260.00;;;-1.79;100.00
27429;BME280;14881;48.092;11.574;2024-01-15T03:12:50;94253.63;;;-1.78;100.00
27429;BME280;14881;48.092;11.574;2024-01-15T03:15:17;94250.97;;;-1.78;100.00
27429;BME280;14881;48.092;11.574;2024-01-15T03:17:44;94253.06;;;-1.80;100.00
27429;BME280;14881;48.092;11.574;2024-01-15T03:20:11;94248.06;;;-1.76;100.00
27429;BME280;14881;48.092;11.574;2024-01-15T03:22:38;94247.81;;;-1.74;100.00
27429;BME280;14881;48.092;11.574;2024-01-15T03:25:08;94241.69;;;-1.75;100.00
27429;BME280;14881;48.092;11.574;2024-01-15T03:27:34;94247.50;;;-1.78;100.00
27429;BME280;14881;48.092;11.574;2024-01-15T03:30:01;94242.41;;;-1.80;100.00
27429;BME280;14881;48.092;11.574;2024-01-15T03:32:29;94234.69;;;-1.81;100.00
27429;BME280;14881;48.092;11.574;2024-01-15T03:34:55;94240.72;;;-1.86;100.00
27429;BME280;14881;48.092;11.574;2024-01-15T03:37:22;94248.94;;;-1.87;100.00
27429;BME280;14881;48.092;11.574;2024-01-15T03:39:48;94251.13;;;-1.84;100.00
27429;BME280;14881;48.092;11.574;2024-01-15T03:42:15;94248.88;;;-1.76;100.00
27429;BME280;14881;48.092;11.574;2024-01-15T03:44:41;94254.69;;;-1.79;100.00
27429;BME280;14881;48.092;11.574;2024-01-15T03:47:08;94258.97;;;-1.78;100.00
27429;BME280;14881;48.092;11.574;2024-01-15T03:49:35;94258.38;;;-1.80;100.00
27429;BME280;14881;48.092;11.574;2024-01-15T03:52:02;94249.13;;;-1.77;100.00
27429;BME280;14881;48.092;11.574;2024-01-15T03:54:28;94246.13;;;-1.81;100.00
27429;BME280;14881;48.092;11.574;2024-01-15T03:56:54;94242.91;;;-1.83;100.00
27429;BME280;14881;48.092;11.574;2024-01-15T03:59:21;94242.09;;;-1.83;100.00
27429;BME280;14881;48.092;11.574;2024-01-15T04:01:50;94239.69;;;-1.85;100.00
27429;BME280;14881;48.092;11.574;2024-01-15T04:04:17;94232.03;;;-1.81;100.00
27429;BME280;14881;48.092;11.574;2024-01-15T04:06:44;94228.56;;;-1.82;100.00
27429;BME280;14881;48.092;11.574;2024-01-15T04:09:12;94222.91;;;-1.85;100.00
27429;BME280;14881;48.092;11.574;2024-01-15T04:11:38;94222.59;;;-1.89;100.00
27429;BME280;14881;48.092;11.574;2024-01-15T04:14:04;94222.19;;;-1.81;100.00
27429;BME280;14881;48.092;11.574;2024-01-15T04:16:31;94225.09;;;-1.82;100.00
27429;BME280;14881;48.092;11.574;2024-01-15T04:18:57;94234.34;;;-1.85;100.00
27429;BME280;14881;48.092;11.574;2024-01-15T04:21:24;94230.41;;;-1.82;100.00
27429;BME280;14881;48.092;11.574;2024-01-15T04:23:51;94223.78;;;-1.80;100.00
27429;BME280;14881;48.092;11.574;2024-01-15T04:26:17;94223.56;;;-1.78;100.00
27429;BME280;14881;48.092;11.574;2024-01-15T04:28:44;94222.75;;;-1.79;100.00
27429;BME280;14881;48.092;11.574;2024-01-15T04:31:20;94226.53;;;-1.74;100.00
27429;BME280;14881;48.092;11.574;2024-01-15T04:33:47;94233.72;;;-1.75;100.00
27429;BME280;14881;48.092;11.574;2024-01-15T04:36:13;94227.81;;;-1.77;100.00
27429;BME280;14881;48.092;11.574;2024-01-15T04:38:40;94220.09;;;-1.79;100.00
27429;BME280;14881;48.092;11.574;2024-01-15T04:41:10;94216.38;;;-1.78;100.00
27429;BME280;14881;48.092;11.574;2024-01-15T04:43:36;94205.16;;;-1.80;100.00
27429;BME280;14881;48.092;11.574;2024-01-15T04:46:05;94217.34;;;-1.84;100.00
27429;BME280;14881;48.092;11.574;2024-01-15T04:48:31;94216.38;;;-1.78;100.00
27429;BME280;14881;48.092;11.574;2024-01-15T04:50:58;94209.75;;;-1.75;100.00
27429;BME280;14881;48.092;11.574;2024-01-15T04:53:24;94211.38;;;-1.74;100.00
27429;BME280;14881;48.092;11.574;2024-01-15T04:55:51;94215.56;;;-1.78;100.00
27429;BME280;14881;48.092;11.574;2024-01-15T04:58:18;94226.78;;;-1.76;100.00
27429;BME280;14881;48.092;11.574;2024-01-15T05:00:44;94223.94;;;-1.69;100.00
27429;BME280;14881;48.092;11.574;2024-01-15T05:03:11;94218.03;;;-1.71;100.00
27429;BME280;14881;48.092;11.574;2024-01-15T05:05:37;94221.75;;;-1.72;100.00
27429;BME280;14881;48.092;11.574;2024-01-15T05:08:05;94214.84;;;-1.73;100.00
27429;BME280;14881;48.092;11.574;2024-01-15T05:10:31;94216.19;;;-1.71;100.00
27429;BME280;14881;48.092;11.574;2024-01-15T05:12:57;94214.31;;;-1.70;100.00
27429;BME280;14881;48.092;11.574;2024-01-15T05:15:24;94210.63;;;-1.69;100.00
27429;BME280;14881;48.092;11.574;2024-01-15T05:17:51;94196.97;;;-1.73;100.00
27429;BME280;14881;48.092;11.574;2024-01-15T05:20:18;94206.28;;;-1.76;100.00
27429;BME280;14881;48.092;11.574;2024-01-15T05:22:44;94209.25;;;-1.72;100.00
27429;BME280;14881;48.092;11.574;2024-01-15T05:25:11;94221.50;;;-1.71;100.00
27429;BME280;14881;48.092;11.574;2024-01-15T05:27:37;94214.56;;;-1.72;100.00
27429;BME280;14881;48.092;11.574;2024-01-15T05:30:04;94230.81;;;-1.73;100.00
27429;BME280;14881;48.092;11.574;2024-01-15T05:32:32;94218.47;;;-1.80;100.00
27429;BME280;14881;48.092;11.574;2024-01-15T05:34:58;94229.69;;;-1.78;100.00
27429;BME280;14881;48.092;11.574;2024-01-15T05:37:25;94213.47;;;-1.76;100.00
27429;BME280;14881;48.092;11.574;2024-01-15T05:39:52;94218.00;;;-1.77;100.00
27429;BME280;14881;48.092;11.574;2024-01-15T05:42:18;94209.53;;;-1.73;100.00
27429;BME280;14881;48.092;11.574;2024-01-15T05:44:45;94212.72;;;-1.71;100.00
27429;BME280;14881;48.092;11.574;2024-01-15T05:47:11;94218.56;;;-1.74;100.00
27429;BME280;14881;48.092;11.574;2024-01-15T05:49:38;94219.59;;;-1.76;100.00
27429;BME280;14881;48.092;11.574;2024-01-15T05:52:05;94221.75;;;-1.72;100.00
27429;BME280;14881;48.092;11.574;2024-01-15T05:54:31;94213.22;;;-1.74;100.00
27429;BME280;14881;48.092;11.574;2024-01-15T05:56:58;94217.75;;;-1.75;100.00
27429;BME280;14881;48.092;11.574;2024-01-15T05:59:24;94225.16;;;-1.77;100.00
27429;BME280;14881;48.092;11.574;2024-01-15T06:01:51;94222.50;;;-1.77;100.00
27429;BME280;14881;48.092;11.574;2024-01-15T06:04:18;94212.66;;;-1.77;100.00
27429;BME280;14881;48.092;11.574;2024-01-15T06:06:45;94209.69;;;-1.80;100.00
27429;BME280;14881;48.092;11.574;2024-01-15T06:09:11;94216.53;;;-1.84;100.00
27429;BME280;14881;48.092;11.574;2024-01-15T06:11:38;94212.25;;;-1.85;100.00
27429;BME280;14881;48.092;11.574;2024-01-15T06:14:04;94214.44;;;-1.82;100.00
27429;BME280;14881;48.092;11.574;2024-01-15T06:16:31;94213.63;;;-1.83;100.00
27429;BME280;14881;48.092;11.574;2024-01-15T06:18:57;94219.44;;;-1.86;100.00
27429;BME280;14881;48.092;11.574;2024-01-15T06:21:24;94215.72;;;-1.85;100.00
27429;BME280;14881;48.092;11.574;2024-01-15T06:23:51;94220.16;;;-1.90;100.00
27429;BME280;14881;48.092;11.574;2024-01-15T06:26:18;94218.38;;;-1.85;100.00
27429;BME280;14881;48.092;11.574;2024-01-15T06:28:44;94217.09;;;-1.82;100.00
27429;BME280;14881;48.092;11.574;2024-01-15T06:31:11;94222.66;;;-1.84;100.00
27429;BME280;14881;48.092;11.574;2024-01-15T06:33:38;94214.69;;;-1.84;100.00
27429;BME280;14881;48.092;11.574;2024-01-15T06:36:05;94222.91;;;-1.85;100.00
27429;BME280;14881;48.092;11.574;2024-01-15T06:38:32;94215.50;;;-1.83;100.00
27429;BME280;14881;48.092;11.574;2024-01-15T06:41:00;94220.25;;;-1.85;100.00
27429;BME280;14881;48.092;11.574;2024-01-15T06:43:27;94218.38;;;-1.85;100.00
27429;BME280;14881;48.092;11.574;2024-01-15T06:45:53;94220.50;;;-1.87;100.00
27429;BME280;14881;48.092;11.574;2024-01-15T06:48:20;94220.25;;;-1.85;100.00
27429;BME280;14881;48.092;11.574;2024-01-15T06:50:46;94217.34;;;-1.84;100.00
27429;BME280;14881;48.092;11.574;2024-01-15T06:53:13;94223.56;;;-1.78;100.00
27429;BME280;14881;48.092;11.574;2024-01-15T06:55:39;94204.13;;;-1.79;100.00
27429;BME280;14881;48.092;11.574;2024-01-15T06:58:06;94212.66;;;-1.77;100.00
27429;BME280;14881;48.092;11.574;2024-01-15T07:00:33;94215.31;;;-1.77;100.00
27429;BME280;14881;48.092;11.574;2024-01-15T07:02:59;94216.94;;;-1.76;100.00
27429;BME280;14881;48.092;11.574;2024-01-15T07:05:26;94217.50;;;-1.73;100.00
27429;BME280;14881;48.092;11.574;2024-01-15T07:07:52;94224.72;;;-1.69;100.00
27429;BME280;14881;48.092;11.574;2024-01-15T07:10:19;94221.25;;;-1.69;100.00
27429;BME280;14881;48.092;11.574;2024-01-15T07:12:45;94224.16;;;-1.71;100.00
27429;BME280;14881;48.092;11.574;2024-01-15T07:15:12;94209.56;;;-1.68;100.00
27429;BME280;14881;48.092;11.574;2024-01-15T07:17:39;94191.75;;;-1.68;100.00
27429;BME280;14881;48.092;11.574;2024-01-15T07:20:07;94201.09;;;-1.65;100.00
27429;BME280;14881;48.092;11.574;2024-01-15T07:22:35;94209.66;;;-1.63;100.00
27429;BME280;14881;48.092;11.574;2024-01-15T07:25:01;94217.38;;;-1.62;100.00
27429;BME280;14881;48.092;11.574;2024-01-15T07:27:28;94210.22;;;-1.61;100.00
27429;BME280;14881;48.092;11.574;2024-01-15T07:29:54;94215.22;;;-1.65;100.00
27429;BME280;14881;48.092;11.574;2024-01-15T07:32:24;94218.44;;;-1.63;100.00
27429;BME280;14881;48.092;11.574;2024-01-15T07:34:51;94216.56;;;-1.62;100.00
27429;BME280;14881;48.092;11.574;2024-01-15T07:37:17;94211.50;;;-1.64;100.00
27429;BME280;14881;48.092;11.574;2024-01-15T07:39:44;94196.66;;;-1.60;100.00
27429;BME280;14881;48.092;11.574;2024-01-15T07:42:12;94207.31;;;-1.60;100.00
27429;BME280;14881;48.092;11.574;2024-01-15T07:44:39;94216.94;;;-1.54;100.00
27429;BME280;14881;48.092;11.574;2024-01-15T07:47:05;94203.06;;;-1.56;100.00
27429;BME280;14881;48.092;11.574;2024-01-15T07:49:32;94206.84;;;-1.52;100.00
27429;BME280;14881;48.092;11.574;2024-01-15T07:52:00;94210.66;;;-1.48;100.00
27429;BME280;14881;48.092;11.574;2024-01-15T07:54:27;94208.28;;;-1.44;100.00
27429;BME280;14881;48.092;11.574;2024-01-15T07:56:54;94208.53;;;-1.46;100.00
27429;BME280;14881;48.092;11.574;2024-01-15T07:59:21;94211.75;;;-1.44;100.00
27429;BME280;14881;48.092;11.574;2024-01-15T08:01:47;94210.47;;;-1.41;100.00
27429;BME280;14881;48.092;11.574;2024-01-15T08:04:14;94198.78;;;-1.40;100.00
27429;BME280;14881;48.092;11.574;2024-01-15T08:06:41;94195.91;;;-1.33;100.00
27429;BME280;14881;48.092;11.574;2024-01-15T08:09:07;94196.94;;;-1.34;100.00
27429;BME280;14881;48.092;11.574;2024-01-15T08:11:34;94180.47;;;-1.31;100.00
27429;BME280;14881;48.092;11.574;2024-01-15T08:14:01;94183.16;;;-1.31;100.00
27429;BME280;14881;48.092;11.574;2024-01-15T08:16:27;94191.13;;;-1.31;100.00
27429;BME280;14881;48.092;11.574;2024-01-15T08:18:54;94182.91;;;-1.30;100.00
27429;BME280;14881;48.092;11.574;2024-01-15T08:21:21;94178.38;;;-1.29;100.00
27429;BME280;14881;48.092;11.574;2024-01-15T08:23:48;94177.88;;;-1.26;100.00
27429;BME280;14881;48.092;11.574;2024-01-15T08:26:14;94180.78;;;-1.28;100.00
27429;BME280;14881;48.092;11.574;2024-01-15T08:28:41;94171.19;;;-1.29;100.00
27429;BME280;14881;48.092;11.574;2024-01-15T08:31:07;94176.84;;;-1.25;100.00
27429;BME280;14881;48.092;11.574;2024-01-15T08:33:34;94184.81;;;-1.25;100.00
27429;BME280;14881;48.092;11.574;2024-01-15T08:36:02;94180.88;;;-1.23;100.00
27429;BME280;14881;48.092;11.574;2024-01-15T08:38:28;94195.22;;;-1.24;100.00
27429;BME280;14881;48.092;11.574;2024-01-15T08:40:55;94191.53;;;-1.23;100.00
27429;BME280;14881;48.092;11.574;2024-01-15T08:43:24;94202.09;;;-1.28;100.00
27429;BME280;14881;48.092;11.574;2024-01-15T08:45:51;94200.31;;;-1.22;100.00
27429;BME280;14881;48.092;11.574;2024-01-15T08:48:18;94194.72;;;-1.21;100.00
27429;BME280;14881;48.092;11.574;2024-01-15T08:50:45;94186.69;;;-1.26;100.00
27429;BME280;14881;48.092;11.574;2024-01-15T08:53:12;94195.28;;;-1.19;100.00
27429;BME280;14881;48.092;11.574;2024-01-15T08:55:38;94192.34;;;-1.17;100.00
27429;BME280;14881;48.092;11.574;2024-01-15T08:58:05;94184.63;;;-1.19;100.00
27429;BME280;14881;48.092;11.574;2024-01-15T09:00:32;94181.94;;;-1.19;100.00
27429;BME280;14881;48.092;11.574;2024-01-15T09:02:59;94173.16;;;-1.19;100.00
27429;BME280;14881;48.092;11.574;2024-01-15T09:05:25;94184.94;;;-1.15;100.00
27429;BME280;14881;48.092;11.574;2024-01-15T09:07:52;94179.91;;;-1.12;100.00
27429;BME280;14881;48.092;11.574;2024-01-15T09:10:18;94189.50;;;-1.11;100.00
27429;BME280;14881;48.092;11.574;2024-01-15T09:12:46;94182.63;;;-1.07;100.00
27429;BME280;14881;48.092;11.574;2024-01-15T09:15:13;94192.50;;;-1.07;100.00
27429;BME280;14881;48.092;11.574;2024-01-15T09:17:40;94188.25;;;-1.03;100.00
27429;BME280;14881;48.092;11.574;2024-01-15T09:20:07;94187.81;;;-0.95;100.00
27429;BME280;14881;48.092;11.574;2024-01-15T09:22:34;94194.50;;;-0.92;100.00
27429;BME280;14881;48.092;11.574;2024-01-15T09:25:00;94188.69;;;-0.89;100.00
27429;BME280;14881;48.092;11.574;2024-01-15T09:27:27;94193.75;;;-0.88;100.00
27429;BME280;14881;48.092;11.574;2024-01-15T09:29:54;94185.84;;;-0.78;100.00
27429;BME280;14881;48.092;11.574;2024-01-15T09:32:21;94198.94;;;-0.76;100.00
27429;BME280;14881;48.092;11.574;2024-01-15T09:34:48;94194.16;;;-0.74;100.00
27429;BME280;14881;48.092;11.574;2024-01-15T09:37:15;94195.81;;;-0.68;100.00
27429;BME280;14881;48.092;11.574;2024-01-15T09:40:01;94197.47;;;-0.62;100.00
27429;BME280;14881;48.092;11.574;2024-01-15T09:42:29;94194.06;;;-0.57;100.00
27429;BME280;14881;48.092;11.574;2024-01-15T09:44:56;94190.03;;;-0.60;100.00
27429;BME280;14881;48.092;11.574;2024-01-15T09:47:24;94186.63;;;-0.50;100.00
27429;BME280;14881;48.092;11.574;2024-01-15T09:49:51;94184.56;;;-0.43;100.00
27429;BME280;14881;48.092;11.574;2024-01-15T09:52:19;94187.84;;;-0.36;100.00
27429;BME280;14881;48.092;11.574;2024-01-15T09:54:46;94195.28;;;-0.38;100.00
27429;BME280;14881;48.092;11.574;2024-01-15T09:57:14;94203.56;;;-0.35;100.00
27429;BME280;14881;48.092;11.574;2024-01-15T09:59:43;94180.91;;;-0.32;100.00
27429;BME280;14881;48.092;11.574;2024-01-15T10:02:11;94183.69;;;-0.22;100.00
27429;BME280;14881;48.092;11.574;2024-01-15T10:04:41;94178.34;;;-0.17;100.00
27429;BME280;14881;48.092;11.574;2024-01-15T10:07:08;94185.56;;;-0.17;100.00
27429;BME280;14881;48.092;11.574;2024-01-15T10:09:35;94164.22;;;-0.17;100.00
27429;BME280;14881;48.092;11.574;2024-01-15T10:12:01;94168.78;;;-0.18;100.00
27429;BME280;14881;48.092;11.574;2024-01-15T10:14:28;94169.69;;;-0.02;100.00
27429;BME280;14881;48.092;11.574;2024-01-15T10:16:56;94157.09;;;-0.07;100.00
27429;BME280;14881;48.092;11.574;2024-01-15T10:19:23;94162.47;;;-0.02;100.00
27429;BME280;14881;48.092;11.574;2024-01-15T10:21:50;94147.84;;;0.06;100.00
27429;BME280;14881;48.092;11.574;2024-01-15T10:24:17;94157.09;;;-0.07;100.00
27429;BME280;14881;48.092;11.574;2024-01-15T10:26:43;94159.00;;;-0.02;100.00
27429;BME280;14881;48.092;11.574;2024-01-15T10:29:10;94142.19;;;0.03;100.00
27429;BME280;14881;48.092;11.574;2024-01-15T10:31:37;94139.81;;;0.06;100.00
27429;BME280;14881;48.092;11.574;2024-01-15T10:34:13;94140.31;;;-0.02;100.00
27429;BME280;14881;48.092;11.574;2024-01-15T10:36:41;94119.16;;;-0.14;100.00
27429;BME280;14881;48.092;11.574;2024-01-15T10:39:08;94128.75;;;-0.13;100.00
27429;BME280;14881;48.092;11.574;2024-01-15T10:41:35;94115.69;;;-0.14;100.00
27429;BME280;14881;48.092;11.574;2024-01-15T10:44:01;94119.94;;;-0.18;100.00
27429;BME280;14881;48.092;11.574;2024-01-15T10:46:28;94126.91;;;-0.12;100.00
27429;BME280;14881;48.092;11.574;2024-01-15T10:48:55;94126.44;;;0.01;100.00
27429;BME280;14881;48.092;11.574;2024-01-15T10:51:21;94119.53;;;0.00;100.00
27429;BME280;14881;48.092;11.574;2024-01-15T10:53:48;94126.72;;;-0.01;100.00
27429;BME280;14881;48.092;11.574;2024-01-15T10:56:16;94126.50;;;0.11;100.00
27429;BME280;14881;48.092;11.574;2024-01-15T10:58:45;94116.31;;;0.03;100.00
27429;BME280;14881;48.092;11.574;2024-01-15T11:01:13;94108.78;;;-0.10;100.00
27429;BME280;14881;48.092;11.574;2024-01-15T11:03:40;94104.56;;;-0.01;100.00
27429;BME280;14881;48.092;11.574;2024-01-15T11:06:16;94099.22;;;-0.01;100.00
27429;BME280;14881;48.092;11.574;2024-01-15T11:08:43;94105.13;;;0.06;100.00
27429;BME280;14881;48.092;11.574;2024-01-15T11:11:10;94097.44;;;0.20;100.00
27429;BME280;14881;48.092;11.574;2024-01-15T11:13:40;94106.59;;;0.29;100.00
27429;BME280;14881;48.092;11.574;2024-01-15T11:16:09;94115.91;;;0.26;100.00
27429;BME280;14881;48.092;11.574;2024-01-15T11:18:37;94091.91;;;0.31;100.00
27429;BME280;14881;48.092;11.574;2024-01-15T11:21:20;94092.41;;;0.23;100.00
27429;BME280;14881;48.092;11.574;2024-01-15T11:23:48;94089.53;;;0.40;100.00
27429;BME280;14881;48.092;11.574;2024-01-15T11:26:30;94094.59;;;0.37;100.00
27429;BME280;14881;48.092;11.574;2024-01-15T11:28:59;94093.53;;;0.43;100.00
27429;BME280;14881;48.092;11.574;2024-01-15T11:31:27;94091.38;;;0.40;100.00
27429;BME280;14881;48.092;11.574;2024-01-15T11:33:54;94085.84;;;0.51;100.00
27429;BME280;14881;48.092;11.574;2024-01-15T11:36:21;94081.81;;;0.49;100.00
27429;BME280;14881;48.092;11.574;2024-01-15T11:38:48;94086.38;;;0.48;100.00
27429;BME280;14881;48.092;11.574;2024-01-15T11:41:15;94089.56;;;0.45;100.00
27429;BME280;14881;48.092;11.574;2024-01-15T11:43:42;94091.38;;;0.40;100.00
27429;BME280;14881;48.092;11.574;2024-01-15T11:46:11;94088.44;;;0.36;100.00
27429;BME280;14881;48.092;11.574;2024-01-15T11:48:43;94091.03;;;0.21;100.00
27429;BME280;14881;48.092;11.574;2024-01-15T11:51:11;94094.78;;;0.15;100.00
27429;BME280;14881;48.092;11.574;2024-01-15T11:53:43;94091.25;;;0.09;100.00
27429;BME280;14881;48.092;11.574;2024-01-15T11:56:14;94083.47;;;-0.03;100.00
27429;BME280;14881;48.092;11.574;2024-01-15T11:58:41;94077.59;;;-0.05;100.00
27429;BME280;14881;48.092;11.574;2024-01-15T12:01:08;94078.69;;;-0.01;100.00
27429;BME280;14881;48.092;11.574;2024-01-15T12:03:35;94075.75;;;0.06;100.00
27429;BME280;14881;48.092;11.574;2024-01-15T12:06:02;94066.16;;;0.05;100.00
27429;BME280;14881;48.092;11.574;2024-01-15T12:08:28;94061.63;;;0.06;100.00
27429;BME280;14881;48.092;11.574;2024-01-15T12:10:55;94059.75;;;0.06;100.00
27429;BME280;14881;48.092;11.574;2024-01-15T12:13:22;94057.09;;;0.11;100.00
27429;BME280;14881;48.092;11.574;2024-01-15T12:15:49;94053.63;;;0.11;100.00
27429;BME280;14881;48.092;11.574;2024-01-15T12:18:17;94055.78;;;0.14;100.00
27429;BME280;14881;48.092;11.574;2024-01-15T12:20:46;94049.91;;;0.12;100.00
27429;BME280;14881;48.092;11.574;2024-01-15T12:23:13;94045.13;;;0.14;100.00
27429;BME280;14881;48.092;11.574;2024-01-15T12:25:39;94030.66;;;0.05;100.00
27429;BME280;14881;48.092;11.574;2024-01-15T12:28:06;94038.38;;;0.01;100.00
27429;BME280;14881;48.092;11.574;2024-01-15T12:30:34;94021.28;;;-0.03;100.00
27429;BME280;14881;48.092;11.574;2024-01-15T12:33:02;94023.69;;;-0.02;100.00
27429;BME280;14881;48.092;11.574;2024-01-15T12:35:30;94016.72;;;-0.08;100.00
27429;BME280;14881;48.092;11.574;2024-01-15T12:37:57;94015.09;;;-0.19;100.00
27429;BME280;14881;48.092;11.574;2024-01-15T12:40:23;94017.75;;;-0.19;100.00